sensor_id;sensor_type;location;lat;lon;timestamp;P1;durP1;ratioP1;P2;durP2;ratioP2
8488;SDS011;4281;45.772;12.852;2023-03-04T00:00:32;13.87;;;12.37;;
8488;SDS011;4281;45.772;12.852;2023-03-04T00:03:00;15.67;;;12.80;;
8488;SDS011;4281;45.772;12.852;2023-03-04T00:05:28;13.83;;;12.33;;
8488;SDS011;4281;45.772;12.852;2023-03-04T00:07:56;13.70;;;12.27;;
8488;SDS011;4281;45.772;12.852;2023-03-04T00:10:24;15.07;;;12.90;;
8488;SDS011;4281;45.772;12.852;2023-03-04T00:12:52;14.17;;;12.67;;
8488;SDS011;4281;45.772;12.852;2023-03-04T00:15:19;15.47;;;13.80;;
8488;SDS011;4281;45.772;12.852;2023-03-04T00:17:49;16.70;;;14.03;;
8488;SDS011;4281;45.772;12.852;2023-03-04T00:20:16;15.57;;;13.93;;
8488;SDS011;4281;45.772;12.852;2023-03-04T00:22:44;15.70;;;12.97;;
8488;SDS011;4281;45.772;12.852;2023-03-04T00:25:13;14.73;;;13.00;;
8488;SDS011;4281;45.772;12.852;2023-03-04T00:27:41;15.67;;;13.43;;
8488;SDS011;4281;45.772;12.852;2023-03-04T00:30:09;15.10;;;12.97;;
8488;SDS011;4281;45.772;12.852;2023-03-04T00:32:37;15.23;;;13.10;;
8488;SDS011;4281;45.772;12.852;2023-03-04T00:35:07;14.20;;;12.07;;
8488;SDS011;4281;45.772;12.852;2023-03-04T00:37:35;13.87;;;12.30;;
8488;SDS011;4281;45.772;12.852;2023-03-04T00:51:11;13.30;;;11.43;;
8488;SDS011;4281;45.772;12.852;2023-03-04T00:53:39;13.93;;;11.97;;
8488;SDS011;4281;45.772;12.852;2023-03-04T00:56:07;12.67;;;11.37;;
8488;SDS011;4281;45.772;12.852;2023-03-04T00:58:35;13.87;;;12.33;;
8488;SDS011;4281;45.772;12.852;2023-03-04T01:01:04;15.83;;;11.73;;
8488;SDS011;4281;45.772;12.852;2023-03-04T01:03:32;13.80;;;12.20;;
8488;SDS011;4281;45.772;12.852;2023-03-04T01:06:00;14.37;;;12.87;;
8488;SDS011;4281;45.772;12.852;2023-03-04T01:08:29;14.83;;;12.80;;
8488;SDS011;4281;45.772;12.852;2023-03-04T01:10:57;14.37;;;12.87;;
8488;SDS011;4281;45.772;12.852;2023-03-04T01:13:25;14.40;;;12.87;;
8488;SDS011;4281;45.772;12.852;2023-03-04T01:15:53;14.33;;;12.83;;
8488;SDS011;4281;45.772;12.852;2023-03-04T01:18:21;14.20;;;12.40;;
8488;SDS011;4281;45.772;12.852;2023-03-04T01:20:49;13.97;;;12.37;;
8488;SDS011;4281;45.772;12.852;2023-03-04T01:23:17;13.43;;;12.03;;
8488;SDS011;4281;45.772;12.852;2023-03-04T01:25:46;13.70;;;12.30;;
8488;SDS011;4281;45.772;12.852;2023-03-04T01:28:14;14.50;;;12.47;;
8488;SDS011;4281;45.772;12.852;2023-03-04T01:30:42;16.37;;;13.87;;
8488;SDS011;4281;45.772;12.852;2023-03-04T01:33:09;14.87;;;13.20;;
8488;SDS011;4281;45.772;12.852;2023-03-04T01:35:37;15.23;;;12.97;;
8488;SDS011;4281;45.772;12.852;2023-03-04T01:38:05;15.57;;;13.67;;
8488;SDS011;4281;45.772;12.852;2023-03-04T01:40:33;15.07;;;12.93;;
8488;SDS011;4281;45.772;12.852;2023-03-04T01:43:02;16.40;;;14.20;;
8488;SDS011;4281;45.772;12.852;2023-03-04T01:45:30;17.50;;;14.77;;
8488;SDS011;4281;45.772;12.852;2023-03-04T01:47:58;14.97;;;13.37;;
8488;SDS011;4281;45.772;12.852;2023-03-04T01:50:27;15.27;;;13.60;;
8488;SDS011;4281;45.772;12.852;2023-03-04T01:52:57;15.77;;;13.27;;
8488;SDS011;4281;45.772;12.852;2023-03-04T01:55:25;14.27;;;12.77;;
8488;SDS011;4281;45.772;12.852;2023-03-04T01:57:53;13.80;;;12.30;;
8488;SDS011;4281;45.772;12.852;2023-03-04T02:00:25;15.80;;;12.67;;
8488;SDS011;4281;45.772;12.852;2023-03-04T02:02:57;15.93;;;12.83;;
8488;SDS011;4281;45.772;12.852;2023-03-04T02:05:26;14.10;;;12.53;;
8488;SDS011;4281;45.772;12.852;2023-03-04T02:07:54;14.63;;;12.23;;
8488;SDS011;4281;45.772;12.852;2023-03-04T02:10:22;14.10;;;12.37;;
8488;SDS011;4281;45.772;12.852;2023-03-04T02:12:51;12.60;;;11.10;;
8488;SDS011;4281;45.772;12.852;2023-03-04T02:15:19;12.70;;;11.40;;
8488;SDS011;4281;45.772;12.852;2023-03-04T02:17:48;12.97;;;11.57;;
8488;SDS011;4281;45.772;12.852;2023-03-04T02:20:22;13.17;;;11.27;;
8488;SDS011;4281;45.772;12.852;2023-03-04T02:22:56;12.23;;;10.93;;
8488;SDS011;4281;45.772;12.852;2023-03-04T02:25:30;12.40;;;10.87;;
8488;SDS011;4281;45.772;12.852;2023-03-04T02:28:01;13.43;;;11.23;;
8488;SDS011;4281;45.772;12.852;2023-03-04T02:30:29;13.47;;;10.80;;
8488;SDS011;4281;45.772;12.852;2023-03-04T02:32:57;12.93;;;10.90;;
8488;SDS011;4281;45.772;12.852;2023-03-04T02:35:25;13.10;;;11.40;;
8488;SDS011;4281;45.772;12.852;2023-03-04T02:37:53;12.77;;;10.90;;
8488;SDS011;4281;45.772;12.852;2023-03-04T02:40:22;11.77;;;10.57;;
8488;SDS011;4281;45.772;12.852;2023-03-04T02:42:52;13.00;;;11.30;;
8488;SDS011;4281;45.772;12.852;2023-03-04T02:45:33;13.20;;;10.87;;
8488;SDS011;4281;45.772;12.852;2023-03-04T02:48:03;13.17;;;10.73;;
8488;SDS011;4281;45.772;12.852;2023-03-04T02:50:32;13.57;;;11.00;;
8488;SDS011;4281;45.772;12.852;2023-03-04T02:53:02;11.57;;;10.37;;
8488;SDS011;4281;45.772;12.852;2023-03-04T02:55:31;11.00;;;9.87;;
8488;SDS011;4281;45.772;12.852;2023-03-04T02:57:58;11.23;;;9.43;;
8488;SDS011;4281;45.772;12.852;2023-03-04T03:00:26;11.73;;;10.27;;
8488;SDS011;4281;45.772;12.852;2023-03-04T03:02:56;11.27;;;10.10;;
8488;SDS011;4281;45.772;12.852;2023-03-04T03:05:24;11.50;;;10.07;;
8488;SDS011;4281;45.772;12.852;2023-03-04T03:07:53;13.60;;;12.10;;
8488;SDS011;4281;45.772;12.852;2023-03-04T03:10:21;14.73;;;13.03;;
8488;SDS011;4281;45.772;12.852;2023-03-04T03:12:49;15.43;;;11.93;;
8488;SDS011;4281;45.772;12.852;2023-03-04T03:15:17;13.33;;;11.13;;
8488;SDS011;4281;45.772;12.852;2023-03-04T03:17:45;13.03;;;11.23;;
8488;SDS011;4281;45.772;12.852;2023-03-04T03:20:15;13.77;;;12.10;;
8488;SDS011;4281;45.772;12.852;2023-03-04T03:22:43;14.93;;;11.80;;
8488;SDS011;4281;45.772;12.852;2023-03-04T03:25:11;14.27;;;12.43;;
8488;SDS011;4281;45.772;12.852;2023-03-04T03:27:40;15.10;;;11.43;;
8488;SDS011;4281;45.772;12.852;2023-03-04T03:30:09;13.37;;;11.97;;
8488;SDS011;4281;45.772;12.852;2023-03-04T03:32:38;12.83;;;11.40;;
8488;SDS011;4281;45.772;12.852;2023-03-04T03:35:06;12.97;;;11.57;;
8488;SDS011;4281;45.772;12.852;2023-03-04T03:37:36;13.03;;;11.57;;
8488;SDS011;4281;45.772;12.852;2023-03-04T03:40:04;12.67;;;10.83;;
8488;SDS011;4281;45.772;12.852;2023-03-04T03:42:32;13.00;;;11.07;;
8488;SDS011;4281;45.772;12.852;2023-03-04T03:45:00;12.80;;;11.43;;
8488;SDS011;4281;45.772;12.852;2023-03-04T03:47:28;11.07;;;9.87;;
8488;SDS011;4281;45.772;12.852;2023-03-04T03:49:56;12.63;;;10.10;;
8488;SDS011;4281;45.772;12.852;2023-03-04T03:52:24;12.33;;;11.03;;
8488;SDS011;4281;45.772;12.852;2023-03-04T03:54:53;12.60;;;10.33;;
8488;SDS011;4281;45.772;12.852;2023-03-04T03:57:20;11.83;;;10.00;;
8488;SDS011;4281;45.772;12.852;2023-03-04T03:59:48;12.00;;;10.77;;
8488;SDS011;4281;45.772;12.852;2023-03-04T04:02:16;13.30;;;11.07;;
8488;SDS011;4281;45.772;12.852;2023-03-04T04:04:44;11.80;;;10.37;;
8488;SDS011;4281;45.772;12.852;2023-03-04T04:07:12;11.80;;;10.43;;
8488;SDS011;4281;45.772;12.852;2023-03-04T04:09:39;13.37;;;10.53;;
8488;SDS011;4281;45.772;12.852;2023-03-04T04:12:10;11.23;;;10.03;;
8488;SDS011;4281;45.772;12.852;2023-03-04T04:14:38;11.83;;;9.67;;
8488;SDS011;4281;45.772;12.852;2023-03-04T04:17:05;11.63;;;9.30;;
8488;SDS011;4281;45.772;12.852;2023-03-04T04:19:33;12.13;;;9.70;;
8488;SDS011;4281;45.772;12.852;2023-03-04T04:22:01;11.47;;;10.03;;
8488;SDS011;4281;45.772;12.852;2023-03-04T04:24:29;11.80;;;9.43;;
8488;SDS011;4281;45.772;12.852;2023-03-04T04:26:57;11.07;;;9.23;;
8488;SDS011;4281;45.772;12.852;2023-03-04T04:29:26;10.23;;;9.13;;
8488;SDS011;4281;45.772;12.852;2023-03-04T04:31:54;10.60;;;8.67;;
8488;SDS011;4281;45.772;12.852;2023-03-04T04:34:22;11.10;;;8.27;;
8488;SDS011;4281;45.772;12.852;2023-03-04T04:36:50;9.47;;;8.47;;
8488;SDS011;4281;45.772;12.852;2023-03-04T04:39:19;10.37;;;9.10;;
8488;SDS011;4281;45.772;12.852;2023-03-04T04:41:46;10.97;;;8.87;;
8488;SDS011;4281;45.772;12.852;2023-03-04T04:44:14;10.87;;;8.97;;
8488;SDS011;4281;45.772;12.852;2023-03-04T04:46:44;11.03;;;9.67;;
8488;SDS011;4281;45.772;12.852;2023-03-04T04:49:11;10.83;;;9.33;;
8488;SDS011;4281;45.772;12.852;2023-03-04T04:51:39;11.20;;;9.73;;
8488;SDS011;4281;45.772;12.852;2023-03-04T04:54:07;11.90;;;9.17;;
8488;SDS011;4281;45.772;12.852;2023-03-04T04:56:40;10.73;;;9.37;;
8488;SDS011;4281;45.772;12.852;2023-03-04T04:59:08;12.47;;;10.07;;
8488;SDS011;4281;45.772;12.852;2023-03-04T05:01:35;11.80;;;9.53;;
8488;SDS011;4281;45.772;12.852;2023-03-04T05:04:05;10.60;;;9.50;;
8488;SDS011;4281;45.772;12.852;2023-03-04T05:06:32;11.40;;;10.20;;
8488;SDS011;4281;45.772;12.852;2023-03-04T05:09:00;10.50;;;9.30;;
8488;SDS011;4281;45.772;12.852;2023-03-04T05:11:29;10.77;;;9.30;;
8488;SDS011;4281;45.772;12.852;2023-03-04T05:13:57;10.13;;;9.13;;
8488;SDS011;4281;45.772;12.852;2023-03-04T05:16:25;10.67;;;8.97;;
8488;SDS011;4281;45.772;12.852;2023-03-04T05:18:53;10.13;;;8.80;;
8488;SDS011;4281;45.772;12.852;2023-03-04T05:21:22;10.83;;;9.73;;
8488;SDS011;4281;45.772;12.852;2023-03-04T05:23:50;10.93;;;8.87;;
8488;SDS011;4281;45.772;12.852;2023-03-04T05:26:17;12.47;;;9.10;;
8488;SDS011;4281;45.772;12.852;2023-03-04T05:28:46;9.77;;;8.77;;
8488;SDS011;4281;45.772;12.852;2023-03-04T05:31:14;11.03;;;8.70;;
8488;SDS011;4281;45.772;12.852;2023-03-04T05:33:43;11.37;;;9.17;;
8488;SDS011;4281;45.772;12.852;2023-03-04T05:36:13;12.77;;;9.57;;
8488;SDS011;4281;45.772;12.852;2023-03-04T05:38:42;10.73;;;8.50;;
8488;SDS011;4281;45.772;12.852;2023-03-04T05:41:10;9.57;;;8.43;;
8488;SDS011;4281;45.772;12.852;2023-03-04T05:43:38;10.17;;;8.60;;
8488;SDS011;4281;45.772;12.852;2023-03-04T05:46:10;9.77;;;7.63;;
8488;SDS011;4281;45.772;12.852;2023-03-04T05:48:40;12.60;;;8.63;;
8488;SDS011;4281;45.772;12.852;2023-03-04T05:51:09;8.57;;;7.57;;
8488;SDS011;4281;45.772;12.852;2023-03-04T05:53:37;8.43;;;7.30;;
8488;SDS011;4281;45.772;12.852;2023-03-04T05:56:07;10.57;;;8.17;;
8488;SDS011;4281;45.772;12.852;2023-03-04T05:58:36;9.30;;;7.30;;
8488;SDS011;4281;45.772;12.852;2023-03-04T06:01:04;8.20;;;7.30;;
8488;SDS011;4281;45.772;12.852;2023-03-04T06:03:32;9.47;;;7.40;;
8488;SDS011;4281;45.772;12.852;2023-03-04T06:06:00;9.30;;;7.03;;
8488;SDS011;4281;45.772;12.852;2023-03-04T06:08:28;8.43;;;7.23;;
8488;SDS011;4281;45.772;12.852;2023-03-04T06:10:56;8.53;;;7.63;;
8488;SDS011;4281;45.772;12.852;2023-03-04T06:13:26;8.90;;;7.20;;
8488;SDS011;4281;45.772;12.852;2023-03-04T06:15:54;8.40;;;7.50;;
8488;SDS011;4281;45.772;12.852;2023-03-04T06:18:23;8.60;;;7.53;;
8488;SDS011;4281;45.772;12.852;2023-03-04T06:20:54;6.90;;;6.20;;
8488;SDS011;4281;45.772;12.852;2023-03-04T06:23:22;8.73;;;7.00;;
8488;SDS011;4281;45.772;12.852;2023-03-04T06:25:51;8.07;;;6.90;;
8488;SDS011;4281;45.772;12.852;2023-03-04T06:28:20;9.30;;;7.40;;
8488;SDS011;4281;45.772;12.852;2023-03-04T06:30:51;11.30;;;8.27;;
8488;SDS011;4281;45.772;12.852;2023-03-04T06:33:19;8.50;;;6.80;;
8488;SDS011;4281;45.772;12.852;2023-03-04T06:35:47;8.87;;;7.57;;
8488;SDS011;4281;45.772;12.852;2023-03-04T06:38:15;9.33;;;7.50;;
8488;SDS011;4281;45.772;12.852;2023-03-04T06:40:45;10.03;;;7.30;;
8488;SDS011;4281;45.772;12.852;2023-03-04T06:43:12;9.27;;;7.40;;
8488;SDS011;4281;45.772;12.852;2023-03-04T06:45:40;9.27;;;7.50;;
8488;SDS011;4281;45.772;12.852;2023-03-04T06:48:09;10.03;;;7.87;;
8488;SDS011;4281;45.772;12.852;2023-03-04T06:50:38;8.97;;;6.93;;
8488;SDS011;4281;45.772;12.852;2023-03-04T06:53:06;10.93;;;6.83;;
8488;SDS011;4281;45.772;12.852;2023-03-04T06:55:34;9.33;;;7.33;;
8488;SDS011;4281;45.772;12.852;2023-03-04T06:58:02;10.37;;;7.57;;
8488;SDS011;4281;45.772;12.852;2023-03-04T07:00:30;9.17;;;7.57;;
8488;SDS011;4281;45.772;12.852;2023-03-04T07:02:58;9.50;;;8.43;;
8488;SDS011;4281;45.772;12.852;2023-03-04T07:05:27;7.60;;;6.80;;
8488;SDS011;4281;45.772;12.852;2023-03-04T07:07:55;8.70;;;7.00;;
8488;SDS011;4281;45.772;12.852;2023-03-04T07:10:23;9.20;;;7.33;;
8488;SDS011;4281;45.772;12.852;2023-03-04T07:12:50;9.70;;;7.20;;
8488;SDS011;4281;45.772;12.852;2023-03-04T07:15:18;8.17;;;6.87;;
8488;SDS011;4281;45.772;12.852;2023-03-04T07:17:48;11.00;;;6.93;;
8488;SDS011;4281;45.772;12.852;2023-03-04T07:20:15;9.80;;;6.73;;
8488;SDS011;4281;45.772;12.852;2023-03-04T07:22:45;7.97;;;7.03;;
8488;SDS011;4281;45.772;12.852;2023-03-04T07:25:13;9.30;;;6.87;;
8488;SDS011;4281;45.772;12.852;2023-03-04T07:27:41;7.57;;;6.43;;
8488;SDS011;4281;45.772;12.852;2023-03-04T07:30:09;9.87;;;6.67;;
8488;SDS011;4281;45.772;12.852;2023-03-04T07:32:37;8.43;;;5.93;;
8488;SDS011;4281;45.772;12.852;2023-03-04T07:35:05;7.90;;;6.03;;
8488;SDS011;4281;45.772;12.852;2023-03-04T07:37:34;10.73;;;6.00;;
8488;SDS011;4281;45.772;12.852;2023-03-04T07:40:04;10.60;;;7.47;;
8488;SDS011;4281;45.772;12.852;2023-03-04T07:42:33;9.47;;;6.93;;
8488;SDS011;4281;45.772;12.852;2023-03-04T07:45:01;11.07;;;7.10;;
8488;SDS011;4281;45.772;12.852;2023-03-04T07:47:29;8.70;;;7.10;;
8488;SDS011;4281;45.772;12.852;2023-03-04T07:49:56;10.60;;;7.77;;
8488;SDS011;4281;45.772;12.852;2023-03-04T07:52:24;11.27;;;7.70;;
8488;SDS011;4281;45.772;12.852;2023-03-04T07:54:52;9.87;;;7.80;;
8488;SDS011;4281;45.772;12.852;2023-03-04T07:57:21;7.80;;;7.00;;
8488;SDS011;4281;45.772;12.852;2023-03-04T07:59:49;9.33;;;7.70;;
8488;SDS011;4281;45.772;12.852;2023-03-04T08:02:17;7.97;;;6.90;;
8488;SDS011;4281;45.772;12.852;2023-03-04T08:04:45;9.97;;;7.67;;
8488;SDS011;4281;45.772;12.852;2023-03-04T08:07:12;15.43;;;8.13;;
8488;SDS011;4281;45.772;12.852;2023-03-04T08:09:40;11.13;;;8.43;;
8488;SDS011;4281;45.772;12.852;2023-03-04T08:12:08;12.10;;;7.90;;
8488;SDS011;4281;45.772;12.852;2023-03-04T08:14:37;9.90;;;7.30;;
8488;SDS011;4281;45.772;12.852;2023-03-04T08:17:05;9.83;;;7.57;;
8488;SDS011;4281;45.772;12.852;2023-03-04T08:19:34;9.83;;;7.60;;
8488;SDS011;4281;45.772;12.852;2023-03-04T08:22:02;10.10;;;8.33;;
8488;SDS011;4281;45.772;12.852;2023-03-04T08:24:30;8.67;;;7.60;;
8488;SDS011;4281;45.772;12.852;2023-03-04T08:26:58;9.33;;;8.43;;
8488;SDS011;4281;45.772;12.852;2023-03-04T08:29:26;9.23;;;8.23;;
8488;SDS011;4281;45.772;12.852;2023-03-04T08:31:55;8.37;;;7.50;;
8488;SDS011;4281;45.772;12.852;2023-03-04T08:34:24;8.23;;;7.17;;
8488;SDS011;4281;45.772;12.852;2023-03-04T08:36:53;8.67;;;7.63;;
8488;SDS011;4281;45.772;12.852;2023-03-04T08:39:21;8.23;;;7.17;;
8488;SDS011;4281;45.772;12.852;2023-03-04T08:41:49;11.33;;;7.93;;
8488;SDS011;4281;45.772;12.852;2023-03-04T08:44:18;10.73;;;8.00;;
8488;SDS011;4281;45.772;12.852;2023-03-04T08:46:47;9.17;;;7.67;;
8488;SDS011;4281;45.772;12.852;2023-03-04T08:49:16;10.37;;;8.30;;
8488;SDS011;4281;45.772;12.852;2023-03-04T08:51:44;10.53;;;8.00;;
8488;SDS011;4281;45.772;12.852;2023-03-04T08:54:12;9.83;;;7.87;;
8488;SDS011;4281;45.772;12.852;2023-03-04T08:56:40;10.37;;;8.27;;
8488;SDS011;4281;45.772;12.852;2023-03-04T08:59:08;11.27;;;8.60;;
8488;SDS011;4281;45.772;12.852;2023-03-04T09:01:35;11.87;;;8.73;;
8488;SDS011;4281;45.772;12.852;2023-03-04T09:04:03;10.10;;;8.17;;
8488;SDS011;4281;45.772;12.852;2023-03-04T09:06:33;10.70;;;8.33;;
8488;SDS011;4281;45.772;12.852;2023-03-04T09:09:02;10.30;;;7.97;;
8488;SDS011;4281;45.772;12.852;2023-03-04T09:11:30;9.13;;;7.50;;
8488;SDS011;4281;45.772;12.852;2023-03-04T09:13:58;9.57;;;8.17;;
8488;SDS011;4281;45.772;12.852;2023-03-04T09:16:26;9.73;;;8.40;;
8488;SDS011;4281;45.772;12.852;2023-03-04T09:18:54;11.30;;;8.90;;
8488;SDS011;4281;45.772;12.852;2023-03-04T09:21:22;11.07;;;9.33;;
8488;SDS011;4281;45.772;12.852;2023-03-04T09:23:51;12.27;;;9.47;;
8488;SDS011;4281;45.772;12.852;2023-03-04T09:26:20;12.20;;;10.10;;
8488;SDS011;4281;45.772;12.852;2023-03-04T09:28:50;12.67;;;10.43;;
8488;SDS011;4281;45.772;12.852;2023-03-04T09:34:32;10.80;;;9.70;;
8488;SDS011;4281;45.772;12.852;2023-03-04T09:51:01;10.67;;;8.73;;
8488;SDS011;4281;45.772;12.852;2023-03-04T09:53:43;9.77;;;8.77;;
8488;SDS011;4281;45.772;12.852;2023-03-04T09:56:15;11.47;;;9.50;;
8488;SDS011;4281;45.772;12.852;2023-03-04T09:58:47;12.53;;;10.33;;
8488;SDS011;4281;45.772;12.852;2023-03-04T10:01:19;11.83;;;10.60;;
8488;SDS011;4281;45.772;12.852;2023-03-04T10:03:52;12.03;;;10.63;;
8488;SDS011;4281;45.772;12.852;2023-03-04T10:06:23;11.90;;;10.57;;
8488;SDS011;4281;45.772;12.852;2023-03-04T10:08:52;13.43;;;10.57;;
8488;SDS011;4281;45.772;12.852;2023-03-04T10:11:22;13.07;;;11.60;;
8488;SDS011;4281;45.772;12.852;2023-03-04T10:13:54;13.17;;;11.10;;
8488;SDS011;4281;45.772;12.852;2023-03-04T10:16:28;13.43;;;11.53;;
8488;SDS011;4281;45.772;12.852;2023-03-04T10:19:01;13.37;;;11.93;;
8488;SDS011;4281;45.772;12.852;2023-03-04T10:21:44;11.53;;;10.33;;
8488;SDS011;4281;45.772;12.852;2023-03-04T10:24:13;13.37;;;11.27;;
8488;SDS011;4281;45.772;12.852;2023-03-04T10:26:43;13.20;;;11.80;;
8488;SDS011;4281;45.772;12.852;2023-03-04T10:29:13;12.70;;;10.60;;
8488;SDS011;4281;45.772;12.852;2023-03-04T10:31:42;13.13;;;10.80;;
8488;SDS011;4281;45.772;12.852;2023-03-04T10:34:11;12.70;;;10.67;;
8488;SDS011;4281;45.772;12.852;2023-03-04T10:36:49;13.73;;;10.93;;
8488;SDS011;4281;45.772;12.852;2023-03-04T10:39:21;13.43;;;10.83;;
8488;SDS011;4281;45.772;12.852;2023-03-04T10:41:54;11.90;;;10.57;;
8488;SDS011;4281;45.772;12.852;2023-03-04T10:44:25;10.97;;;9.77;;
8488;SDS011;4281;45.772;12.852;2023-03-04T10:46:55;12.73;;;9.57;;
8488;SDS011;4281;45.772;12.852;2023-03-04T10:49:24;12.30;;;9.73;;
8488;SDS011;4281;45.772;12.852;2023-03-04T10:51:59;11.27;;;9.77;;
8488;SDS011;4281;45.772;12.852;2023-03-04T10:54:29;11.70;;;9.83;;
8488;SDS011;4281;45.772;12.852;2023-03-04T10:56:58;10.33;;;9.13;;
8488;SDS011;4281;45.772;12.852;2023-03-04T10:59:31;9.90;;;8.73;;
8488;SDS011;4281;45.772;12.852;2023-03-04T11:02:14;10.67;;;9.53;;
8488;SDS011;4281;45.772;12.852;2023-03-04T11:04:50;10.97;;;9.80;;
8488;SDS011;4281;45.772;12.852;2023-03-04T11:07:21;12.03;;;9.50;;
8488;SDS011;4281;45.772;12.852;2023-03-04T11:09:50;9.93;;;8.93;;
8488;SDS011;4281;45.772;12.852;2023-03-04T11:29:21;8.10;;;7.27;;
8488;SDS011;4281;45.772;12.852;2023-03-04T11:31:52;8.47;;;7.30;;
8488;SDS011;4281;45.772;12.852;2023-03-04T11:34:27;7.50;;;6.73;;
8488;SDS011;4281;45.772;12.852;2023-03-04T11:37:00;7.10;;;6.33;;
8488;SDS011;4281;45.772;12.852;2023-03-04T11:39:31;8.20;;;7.17;;
8488;SDS011;4281;45.772;12.852;2023-03-04T11:42:02;8.57;;;7.50;;
8488;SDS011;4281;45.772;12.852;2023-03-04T11:44:33;8.87;;;7.40;;
8488;SDS011;4281;45.772;12.852;2023-03-04T11:47:04;7.77;;;6.50;;
8488;SDS011;4281;45.772;12.852;2023-03-04T11:52:52;8.60;;;7.50;;
8488;SDS011;4281;45.772;12.852;2023-03-04T12:12:07;9.67;;;8.73;;
8488;SDS011;4281;45.772;12.852;2023-03-04T12:14:49;9.00;;;8.10;;
8488;SDS011;4281;45.772;12.852;2023-03-04T12:20:25;8.30;;;7.50;;
8488;SDS011;4281;45.772;12.852;2023-03-04T12:23:04;9.73;;;7.10;;
8488;SDS011;4281;45.772;12.852;2023-03-04T12:25:41;7.53;;;6.67;;
8488;SDS011;4281;45.772;12.852;2023-03-04T12:28:21;8.70;;;7.53;;
8488;SDS011;4281;45.772;12.852;2023-03-04T12:31:06;7.20;;;6.50;;
8488;SDS011;4281;45.772;12.852;2023-03-04T12:33:47;7.43;;;6.03;;
8488;SDS011;4281;45.772;12.852;2023-03-04T12:36:23;8.10;;;6.80;;
8488;SDS011;4281;45.772;12.852;2023-03-04T12:38:58;7.53;;;6.27;;
8488;SDS011;4281;45.772;12.852;2023-03-04T12:41:36;7.53;;;6.73;;
8488;SDS011;4281;45.772;12.852;2023-03-04T12:44:17;8.97;;;7.13;;
8488;SDS011;4281;45.772;12.852;2023-03-04T12:49:59;7.60;;;6.33;;
8488;SDS011;4281;45.772;12.852;2023-03-04T12:52:44;9.27;;;6.97;;
8488;SDS011;4281;45.772;12.852;2023-03-04T12:55:19;7.67;;;6.67;;
8488;SDS011;4281;45.772;12.852;2023-03-04T12:57:52;7.87;;;7.07;;
8488;SDS011;4281;45.772;12.852;2023-03-04T13:00:22;7.80;;;6.57;;
8488;SDS011;4281;45.772;12.852;2023-03-04T13:02:58;9.70;;;6.90;;
8488;SDS011;4281;45.772;12.852;2023-03-04T13:05:40;7.67;;;6.60;;
8488;SDS011;4281;45.772;12.852;2023-03-04T13:08:14;6.90;;;5.90;;
8488;SDS011;4281;45.772;12.852;2023-03-04T13:10:51;7.57;;;6.37;;
8488;SDS011;4281;45.772;12.852;2023-03-04T13:13:40;6.57;;;5.97;;
8488;SDS011;4281;45.772;12.852;2023-03-04T13:18:57;7.40;;;5.53;;
8488;SDS011;4281;45.772;12.852;2023-03-04T13:21:26;8.73;;;5.93;;
8488;SDS011;4281;45.772;12.852;2023-03-04T13:23:54;8.23;;;6.10;;
8488;SDS011;4281;45.772;12.852;2023-03-04T13:26:26;6.93;;;5.83;;
8488;SDS011;4281;45.772;12.852;2023-03-04T13:32:03;7.53;;;6.27;;
8488;SDS011;4281;45.772;12.852;2023-03-04T13:34:40;7.20;;;6.40;;
8488;SDS011;4281;45.772;12.852;2023-03-04T13:37:27;6.73;;;5.93;;
8488;SDS011;4281;45.772;12.852;2023-03-04T13:45:49;7.07;;;6.33;;
8488;SDS011;4281;45.772;12.852;2023-03-04T13:48:24;8.23;;;6.93;;
8488;SDS011;4281;45.772;12.852;2023-03-04T13:50:55;7.93;;;6.50;;
8488;SDS011;4281;45.772;12.852;2023-03-04T13:56:19;6.00;;;5.40;;
8488;SDS011;4281;45.772;12.852;2023-03-04T13:59:00;6.60;;;5.40;;
8488;SDS011;4281;45.772;12.852;2023-03-04T14:01:33;6.73;;;5.30;;
8488;SDS011;4281;45.772;12.852;2023-03-04T14:04:09;7.00;;;5.60;;
8488;SDS011;4281;45.772;12.852;2023-03-04T14:06:40;6.80;;;5.90;;
8488;SDS011;4281;45.772;12.852;2023-03-04T14:09:11;5.93;;;5.30;;
8488;SDS011;4281;45.772;12.852;2023-03-04T14:11:39;5.70;;;5.07;;
8488;SDS011;4281;45.772;12.852;2023-03-04T14:14:10;7.90;;;5.67;;
8488;SDS011;4281;45.772;12.852;2023-03-04T14:16:45;7.07;;;5.40;;
8488;SDS011;4281;45.772;12.852;2023-03-04T14:19:17;6.70;;;4.80;;
8488;SDS011;4281;45.772;12.852;2023-03-04T14:21:49;7.73;;;5.17;;
8488;SDS011;4281;45.772;12.852;2023-03-04T14:24:18;6.73;;;5.20;;
8488;SDS011;4281;45.772;12.852;2023-03-04T14:26:46;5.53;;;4.60;;
8488;SDS011;4281;45.772;12.852;2023-03-04T14:29:19;5.50;;;4.57;;
8488;SDS011;4281;45.772;12.852;2023-03-04T14:31:50;5.00;;;4.13;;
8488;SDS011;4281;45.772;12.852;2023-03-04T14:34:22;5.60;;;4.23;;
8488;SDS011;4281;45.772;12.852;2023-03-04T14:36:52;7.83;;;4.33;;
8488;SDS011;4281;45.772;12.852;2023-03-04T14:39:28;5.43;;;4.13;;
8488;SDS011;4281;45.772;12.852;2023-03-04T14:42:00;5.77;;;4.37;;
8488;SDS011;4281;45.772;12.852;2023-03-04T14:44:31;4.17;;;3.57;;
8488;SDS011;4281;45.772;12.852;2023-03-04T14:47:08;4.93;;;3.60;;
8488;SDS011;4281;45.772;12.852;2023-03-04T15:00:14;3.27;;;2.87;;
8488;SDS011;4281;45.772;12.852;2023-03-04T15:02:49;3.73;;;3.33;;
8488;SDS011;4281;45.772;12.852;2023-03-04T15:05:19;6.07;;;3.90;;
8488;SDS011;4281;45.772;12.852;2023-03-04T15:07:52;4.87;;;4.33;;
8488;SDS011;4281;45.772;12.852;2023-03-04T15:10:22;5.13;;;4.43;;
8488;SDS011;4281;45.772;12.852;2023-03-04T15:12:51;6.27;;;4.30;;
8488;SDS011;4281;45.772;12.852;2023-03-04T15:15:33;6.10;;;4.90;;
8488;SDS011;4281;45.772;12.852;2023-03-04T15:18:03;6.03;;;4.70;;
8488;SDS011;4281;45.772;12.852;2023-03-04T15:20:39;5.70;;;4.30;;
8488;SDS011;4281;45.772;12.852;2023-03-04T15:23:07;6.97;;;4.93;;
8488;SDS011;4281;45.772;12.852;2023-03-04T15:25:39;4.97;;;4.20;;
8488;SDS011;4281;45.772;12.852;2023-03-04T15:28:10;5.23;;;4.73;;
8488;SDS011;4281;45.772;12.852;2023-03-04T15:30:44;5.40;;;4.10;;
8488;SDS011;4281;45.772;12.852;2023-03-04T15:33:13;5.87;;;4.40;;
8488;SDS011;4281;45.772;12.852;2023-03-04T15:35:43;5.37;;;4.33;;
8488;SDS011;4281;45.772;12.852;2023-03-04T15:38:14;4.60;;;4.03;;
8488;SDS011;4281;45.772;12.852;2023-03-04T15:40:42;5.57;;;4.13;;
8488;SDS011;4281;45.772;12.852;2023-03-04T15:43:10;4.10;;;3.70;;
8488;SDS011;4281;45.772;12.852;2023-03-04T15:45:41;5.53;;;4.30;;
8488;SDS011;4281;45.772;12.852;2023-03-04T15:48:11;6.23;;;4.60;;
8488;SDS011;4281;45.772;12.852;2023-03-04T15:50:41;4.57;;;4.17;;
8488;SDS011;4281;45.772;12.852;2023-03-04T15:53:12;5.70;;;4.57;;
8488;SDS011;4281;45.772;12.852;2023-03-04T15:55:42;5.07;;;4.30;;
8488;SDS011;4281;45.772;12.852;2023-03-04T15:58:11;4.93;;;4.40;;
8488;SDS011;4281;45.772;12.852;2023-03-04T16:00:40;4.23;;;3.70;;
8488;SDS011;4281;45.772;12.852;2023-03-04T16:03:13;3.97;;;3.57;;
8488;SDS011;4281;45.772;12.852;2023-03-04T16:05:44;5.07;;;3.43;;
8488;SDS011;4281;45.772;12.852;2023-03-04T16:08:14;5.17;;;3.63;;
8488;SDS011;4281;45.772;12.852;2023-03-04T16:10:43;4.43;;;3.20;;
8488;SDS011;4281;45.772;12.852;2023-03-04T16:13:12;5.47;;;3.77;;
8488;SDS011;4281;45.772;12.852;2023-03-04T16:15:40;4.67;;;4.13;;
8488;SDS011;4281;45.772;12.852;2023-03-04T16:18:12;5.33;;;3.83;;
8488;SDS011;4281;45.772;12.852;2023-03-04T16:20:42;5.47;;;4.30;;
8488;SDS011;4281;45.772;12.852;2023-03-04T16:23:11;5.83;;;4.43;;
8488;SDS011;4281;45.772;12.852;2023-03-04T16:25:42;6.73;;;4.87;;
8488;SDS011;4281;45.772;12.852;2023-03-04T16:28:10;6.90;;;5.57;;
8488;SDS011;4281;45.772;12.852;2023-03-04T16:30:39;7.10;;;6.40;;
8488;SDS011;4281;45.772;12.852;2023-03-04T16:33:07;9.40;;;7.57;;
8488;SDS011;4281;45.772;12.852;2023-03-04T16:35:38;12.03;;;8.13;;
8488;SDS011;4281;45.772;12.852;2023-03-04T16:38:10;10.27;;;7.77;;
8488;SDS011;4281;45.772;12.852;2023-03-04T16:40:46;11.43;;;8.77;;
8488;SDS011;4281;45.772;12.852;2023-03-04T16:43:14;10.30;;;8.87;;